createdAt,value
2018-03-18T00:01:23.265Z,14.03
2018-03-18T00:03:53.031Z,10.37
2018-03-18T00:06:22.077Z,22.97
2018-03-18T00:08:51.577Z,20.47
2018-03-18T00:11:20.372Z,17.70
2018-03-18T00:13:49.052Z,24.27
2018-03-18T00:16:17.756Z,19.53
2018-03-18T00:18:47.233Z,19.87
2018-03-18T00:21:15.957Z,18.93
2018-03-18T00:23:45.433Z,17.83
2018-03-18T00:26:14.209Z,18.40
2018-03-18T00:28:42.944Z,14.97
2018-03-18T00:31:12.716Z,7.47
2018-03-18T00:33:41.457Z,9.53
2018-03-18T00:36:10.910Z,9.00
2018-03-18T00:38:39.701Z,10.37
2018-03-18T00:41:08.416Z,10.00
2018-03-18T00:43:37.930Z,8.77
2018-03-18T00:46:06.676Z,11.53
2018-03-18T00:48:35.603Z,16.13
2018-03-18T00:51:05.063Z,18.83
2018-03-18T00:53:33.765Z,15.60
2018-03-18T00:56:02.504Z,16.23
2018-03-18T00:58:31.222Z,14.80
2018-03-18T01:00:59.919Z,16.33
2018-03-18T01:03:43.580Z,15.40
2018-03-18T01:06:15.956Z,16.80
2018-03-18T01:08:44.687Z,15.67
2018-03-18T01:11:14.179Z,15.03
2018-03-18T01:13:43.117Z,11.60
2018-03-18T01:16:12.227Z,12.77
2018-03-18T01:18:40.914Z,13.07
2018-03-18T01:21:09.740Z,14.57
2018-03-18T01:23:38.405Z,24.73
2018-03-18T01:26:07.871Z,32.87
2018-03-18T01:28:36.493Z,26.63
2018-03-18T01:31:05.904Z,19.07
2018-03-18T01:33:35.116Z,17.73
2018-03-18T01:36:03.890Z,14.70
2018-03-18T01:38:33.443Z,14.83
2018-03-18T01:41:02.084Z,15.30
2018-03-18T01:43:31.529Z,15.57
2018-03-18T01:46:00.596Z,15.50
2018-03-18T01:48:29.316Z,18.23
2018-03-18T01:50:58.125Z,21.73
2018-03-18T01:53:27.804Z,25.63
2018-03-18T01:55:56.714Z,15.10
2018-03-18T01:58:25.390Z,8.80
2018-03-18T02:00:54.027Z,8.20
2018-03-18T02:03:22.759Z,9.17
2018-03-18T02:05:51.546Z,10.43
2018-03-18T02:08:20.232Z,10.00
2018-03-18T02:10:48.939Z,9.50
2018-03-18T02:13:17.556Z,10.07
2018-03-18T02:15:47.048Z,9.63
2018-03-18T02:18:16.576Z,8.47
2018-03-18T02:20:46.076Z,8.20
2018-03-18T02:23:14.728Z,19.10
2018-03-18T02:25:43.708Z,14.63
2018-03-18T02:28:12.384Z,12.97
2018-03-18T02:30:41.115Z,10.20
2018-03-18T02:33:10.571Z,11.57
2018-03-18T02:35:39.483Z,14.30
2018-03-18T02:38:08.456Z,15.30
2018-03-18T02:40:37.253Z,23.03
2018-03-18T02:43:05.973Z,18.73
2018-03-18T02:45:34.635Z,17.47
2018-03-18T02:48:03.268Z,20.10
2018-03-18T02:50:32.680Z,20.80
2018-03-18T02:53:01.466Z,18.50
2018-03-18T02:55:30.661Z,13.17
2018-03-18T02:57:59.526Z,9.63
2018-03-18T03:00:29.033Z,18.07
2018-03-18T03:02:58.864Z,17.00
2018-03-18T03:05:27.623Z,15.60
2018-03-18T03:07:57.088Z,18.37
2018-03-18T03:10:25.997Z,24.80
2018-03-18T03:12:54.794Z,15.53
2018-03-18T03:15:23.556Z,18.13
2018-03-18T03:17:52.251Z,52.97
2018-03-18T03:20:21.002Z,22.23
2018-03-18T03:22:49.715Z,21.10
2018-03-18T03:25:18.422Z,14.80
2018-03-18T03:27:47.103Z,19.53
2018-03-18T03:30:15.730Z,15.67
2018-03-18T03:32:44.564Z,13.90
2018-03-18T03:35:13.466Z,17.10
2018-03-18T03:37:43.100Z,14.67
2018-03-18T03:40:11.791Z,14.77
2018-03-18T03:42:41.250Z,10.27
2018-03-18T03:45:10.008Z,9.53
2018-03-18T03:47:38.762Z,11.30
2018-03-18T03:50:07.520Z,8.77
2018-03-18T03:52:36.199Z,9.23
2018-03-18T03:55:04.948Z,8.90
2018-03-18T03:57:33.633Z,8.37
2018-03-18T04:00:02.351Z,8.80
2018-03-18T04:02:31.353Z,8.80
2018-03-18T04:05:00.141Z,8.93
2018-03-18T04:07:29.134Z,9.50
2018-03-18T04:09:58.181Z,10.27
2018-03-18T04:12:26.926Z,9.93
2018-03-18T04:14:55.727Z,9.60
2018-03-18T04:17:24.609Z,9.80
2018-03-18T04:19:53.230Z,10.63
2018-03-18T04:22:22.667Z,14.63
2018-03-18T04:24:51.335Z,11.27
2018-03-18T04:27:20.012Z,17.83
2018-03-18T04:29:48.717Z,26.13
2018-03-18T04:32:17.444Z,15.90
2018-03-18T04:34:46.214Z,18.17
2018-03-18T04:37:14.938Z,22.93
2018-03-18T04:39:43.664Z,21.57
2018-03-18T04:42:12.576Z,12.87
2018-03-18T04:44:41.362Z,10.80
2018-03-18T04:47:10.104Z,14.53
2018-03-18T04:49:38.825Z,12.70
2018-03-18T04:52:07.551Z,21.37
2018-03-18T04:54:38.385Z,12.13
2018-03-18T04:57:07.388Z,11.87
2018-03-18T04:59:36.145Z,11.87
2018-03-18T05:02:04.912Z,14.57
2018-03-18T05:04:33.615Z,13.73
2018-03-18T05:07:02.390Z,14.93
2018-03-18T05:09:31.043Z,13.03
2018-03-18T05:12:00.006Z,14.50
2018-03-18T05:14:28.819Z,14.00
2018-03-18T05:16:58.243Z,15.97
2018-03-18T05:19:26.984Z,16.33
2018-03-18T05:21:55.907Z,16.07
2018-03-18T05:24:24.650Z,15.93
2018-03-18T05:26:53.379Z,14.03
2018-03-18T05:29:22.829Z,13.57
2018-03-18T05:31:51.600Z,15.40
2018-03-18T05:34:20.772Z,11.80
2018-03-18T05:36:49.525Z,12.60
2018-03-18T05:39:18.221Z,12.83
2018-03-18T05:41:46.933Z,12.70
2018-03-18T05:44:16.529Z,14.20
2018-03-18T05:46:45.940Z,14.27
2018-03-18T05:49:15.387Z,13.10
2018-03-18T05:51:44.151Z,13.93
2018-03-18T05:54:12.821Z,15.07
2018-03-18T05:56:41.670Z,14.47
2018-03-18T05:59:10.388Z,12.33
2018-03-18T06:01:39.858Z,13.77
2018-03-18T06:04:08.528Z,14.90
2018-03-18T06:06:37.176Z,11.43
2018-03-18T06:09:05.925Z,12.87
2018-03-18T06:11:34.831Z,12.90
2018-03-18T06:17:04.586Z,12.73
2018-03-18T06:19:33.584Z,14.53
2018-03-18T06:22:02.381Z,14.33
2018-03-18T06:24:31.008Z,12.17
2018-03-18T06:27:00.116Z,14.10
2018-03-18T06:29:29.128Z,11.47
2018-03-18T06:32:06.881Z,12.80
2018-03-18T06:34:35.564Z,12.47
2018-03-18T06:40:05.026Z,14.90
2018-03-18T06:42:34.592Z,13.60
2018-03-18T06:45:03.308Z,14.43
2018-03-18T06:47:32.945Z,13.50
2018-03-18T06:50:01.650Z,12.83
2018-03-18T06:52:31.253Z,9.63
2018-03-18T06:55:02.494Z,12.10
2018-03-18T06:57:32.987Z,12.67
2018-03-18T07:00:02.868Z,13.43
2018-03-18T07:02:32.190Z,11.33
2018-03-18T07:05:01.560Z,11.67
2018-03-18T07:07:31.746Z,11.10
2018-03-18T07:10:01.512Z,10.10
2018-03-18T07:12:32.047Z,11.30
2018-03-18T07:15:01.690Z,12.03
2018-03-18T07:17:31.422Z,11.60
2018-03-18T07:20:01.679Z,9.43
2018-03-18T07:22:31.403Z,9.17
2018-03-18T07:25:01.605Z,10.10
2018-03-18T07:27:31.119Z,8.57
2018-03-18T07:30:00.725Z,8.63
2018-03-18T07:32:29.930Z,8.80
2018-03-18T07:35:00.184Z,8.40
2018-03-18T07:37:29.804Z,8.87
2018-03-18T07:39:59.643Z,8.53
2018-03-18T07:42:28.961Z,8.10
2018-03-18T07:44:57.770Z,8.63
2018-03-18T07:47:27.364Z,9.17
2018-03-18T07:49:56.168Z,9.50
2018-03-18T07:52:24.966Z,8.97
2018-03-18T07:54:53.821Z,7.90
2018-03-18T07:57:22.674Z,9.07
2018-03-18T07:59:51.429Z,9.93
2018-03-18T08:02:20.923Z,8.80
2018-03-18T08:04:49.672Z,7.63
2018-03-18T08:07:18.584Z,9.70
2018-03-18T08:09:48.088Z,8.83
2018-03-18T08:12:22.057Z,8.77
2018-03-18T08:14:50.935Z,8.47
2018-03-18T08:17:19.784Z,8.20
2018-03-18T08:22:18.562Z,8.10
2018-03-18T08:24:47.960Z,7.80
2018-03-18T08:27:16.818Z,9.00
2018-03-18T08:29:46.592Z,9.50
2018-03-18T08:32:16.437Z,9.83
2018-03-18T08:34:45.618Z,18.17
2018-03-18T08:37:15.211Z,14.17
2018-03-18T08:39:44.856Z,8.80
2018-03-18T08:42:13.703Z,10.67
2018-03-18T08:44:43.670Z,8.67
2018-03-18T08:47:12.525Z,7.43
2018-03-18T08:49:41.732Z,7.63
2018-03-18T08:52:11.290Z,11.70
2018-03-18T08:54:41.095Z,7.27
2018-03-18T08:57:10.474Z,7.47
2018-03-18T08:59:40.070Z,8.27
2018-03-18T09:02:08.843Z,7.90
2018-03-18T09:04:37.820Z,12.37
2018-03-18T09:07:06.490Z,11.33
2018-03-18T09:09:35.437Z,15.37
2018-03-18T09:12:04.620Z,8.57
2018-03-18T09:14:33.740Z,11.90
2018-03-18T09:17:02.571Z,7.87
2018-03-18T09:19:31.626Z,10.00
2018-03-18T09:22:01.212Z,10.27
2018-03-18T09:24:30.821Z,8.43
2018-03-18T09:27:00.361Z,7.77
2018-03-18T09:29:29.294Z,12.60
2018-03-18T09:31:58.177Z,7.67
2018-03-18T09:34:27.134Z,9.07
2018-03-18T09:36:56.876Z,10.90
2018-03-18T09:39:25.951Z,18.37
2018-03-18T09:41:54.962Z,18.50
2018-03-18T09:44:23.995Z,9.63
2018-03-18T09:46:52.879Z,7.20
2018-03-18T09:49:21.695Z,8.27
2018-03-18T09:51:51.037Z,9.57
2018-03-18T09:54:19.931Z,9.07
2018-03-18T09:56:49.200Z,8.70
2018-03-18T09:59:18.428Z,8.97
2018-03-18T10:01:47.366Z,8.23
2018-03-18T10:04:17.211Z,8.83
2018-03-18T10:06:46.004Z,8.33
2018-03-18T10:09:15.314Z,7.70
2018-03-18T10:11:45.154Z,9.40
2018-03-18T10:14:14.010Z,9.10
2018-03-18T10:16:42.817Z,9.00
2018-03-18T10:19:11.768Z,8.53
2018-03-18T10:21:40.588Z,8.73
2018-03-18T10:24:09.450Z,8.27
2018-03-18T10:26:38.379Z,8.10
2018-03-18T10:29:07.891Z,8.97
2018-03-18T10:31:36.974Z,8.63
2018-03-18T10:34:06.890Z,8.53
2018-03-18T10:36:35.792Z,8.57
2018-03-18T10:39:05.026Z,9.00
2018-03-18T10:41:34.035Z,9.27
2018-03-18T10:44:03.778Z,10.37
2018-03-18T10:46:32.727Z,8.57
2018-03-18T10:49:01.879Z,9.47
2018-03-18T10:51:31.433Z,6.97
2018-03-18T10:54:00.368Z,7.60
2018-03-18T10:56:29.747Z,7.90
2018-03-18T10:58:58.621Z,8.37
2018-03-18T11:01:49.323Z,7.70
2018-03-18T11:04:18.173Z,7.83
2018-03-18T11:06:46.941Z,8.07
2018-03-18T11:09:15.898Z,7.17
2018-03-18T11:11:44.919Z,6.93
2018-03-18T11:14:14.024Z,8.50
2018-03-18T11:16:43.053Z,7.63
2018-03-18T11:19:12.495Z,7.87
2018-03-18T11:21:41.447Z,7.80
2018-03-18T11:24:10.312Z,7.07
2018-03-18T11:26:39.348Z,6.53
2018-03-18T11:29:08.849Z,7.53
2018-03-18T11:31:38.358Z,8.37
2018-03-18T11:34:07.095Z,7.80
2018-03-18T11:36:37.081Z,9.40
2018-03-18T11:39:05.901Z,7.10
2018-03-18T11:41:34.903Z,5.73
2018-03-18T11:44:04.142Z,7.57
2018-03-18T11:46:32.989Z,9.23
2018-03-18T11:49:01.940Z,7.40
2018-03-18T11:51:30.951Z,9.07
2018-03-18T11:53:59.916Z,8.93
2018-03-18T11:56:29.462Z,11.13
2018-03-18T11:58:59.653Z,7.43
2018-03-18T12:01:29.460Z,7.30
2018-03-18T12:03:58.498Z,9.87
2018-03-18T12:06:27.493Z,10.10
2018-03-18T12:08:59.957Z,7.57
2018-03-18T12:11:29.632Z,7.83
2018-03-18T12:13:58.672Z,8.10
2018-03-18T12:16:27.388Z,8.60
2018-03-18T12:18:57.124Z,10.23
2018-03-18T12:21:26.237Z,7.80
2018-03-18T12:23:55.017Z,7.10
2018-03-18T12:26:23.729Z,9.40
2018-03-18T12:28:52.421Z,9.90
2018-03-18T12:31:21.126Z,9.33
2018-03-18T12:33:50.010Z,8.33
2018-03-18T12:36:18.994Z,8.87
2018-03-18T12:38:47.787Z,7.00
2018-03-18T12:41:16.562Z,8.33
2018-03-18T12:43:45.501Z,7.37
2018-03-18T12:46:14.347Z,7.07
2018-03-18T12:48:44.200Z,7.97
2018-03-18T12:51:12.905Z,7.17
2018-03-18T12:53:42.452Z,5.90
2018-03-18T12:56:11.189Z,7.20
2018-03-18T12:58:40.120Z,8.10
2018-03-18T13:01:08.942Z,7.77
2018-03-18T13:03:38.397Z,8.53
2018-03-18T13:06:07.103Z,8.63
2018-03-18T13:08:35.945Z,8.70
2018-03-18T13:11:04.813Z,7.67
2018-03-18T13:16:24.866Z,7.63
2018-03-18T13:18:53.811Z,7.53
2018-03-18T13:21:22.668Z,6.97
2018-03-18T13:23:51.356Z,7.20
2018-03-18T13:26:20.042Z,7.87
2018-03-18T13:28:49.080Z,7.60
2018-03-18T13:31:18.189Z,7.80
2018-03-18T13:33:47.766Z,8.20
2018-03-18T13:36:16.748Z,9.30
2018-03-18T13:38:46.239Z,9.57
2018-03-18T13:41:15.072Z,9.70
2018-03-18T13:43:44.732Z,10.13
2018-03-18T13:46:13.854Z,7.83
2018-03-18T13:48:42.693Z,8.00
2018-03-18T13:51:11.590Z,7.73
2018-03-18T13:53:40.704Z,8.17
2018-03-18T13:56:09.585Z,7.87
2018-03-18T13:58:39.200Z,7.30
2018-03-18T14:01:08.185Z,7.30
2018-03-18T14:03:37.738Z,6.97
2018-03-18T14:06:08.158Z,7.27
2018-03-18T14:08:37.449Z,8.23
2018-03-18T14:11:06.286Z,8.23
2018-03-18T14:13:50.025Z,8.43
2018-03-18T14:16:22.227Z,9.90
2018-03-18T14:18:51.986Z,7.90
2018-03-18T14:21:20.882Z,9.30
2018-03-18T14:23:50.741Z,8.60
2018-03-18T14:26:19.798Z,9.57
2018-03-18T14:28:48.890Z,10.20
2018-03-18T14:31:17.786Z,11.30
2018-03-18T14:33:46.816Z,10.80
2018-03-18T14:36:16.117Z,10.70
2018-03-18T14:38:44.981Z,9.23
2018-03-18T14:41:13.781Z,12.83
2018-03-18T14:43:42.737Z,10.23
2018-03-18T14:46:12.394Z,11.43
2018-03-18T14:48:41.568Z,11.90
2018-03-18T14:51:10.967Z,10.40
2018-03-18T14:53:39.737Z,10.97
2018-03-18T14:56:08.543Z,12.07
2018-03-18T14:58:37.262Z,13.17
2018-03-18T15:01:06.298Z,15.63
2018-03-18T15:03:35.899Z,17.87
2018-03-18T15:06:05.702Z,13.20
2018-03-18T15:08:34.718Z,19.27
2018-03-18T15:11:03.923Z,20.47
2018-03-18T15:13:33.712Z,21.00
2018-03-18T15:16:02.673Z,12.93
2018-03-18T15:18:32.380Z,14.43
2018-03-18T15:21:01.167Z,15.67
2018-03-18T15:23:29.870Z,14.33
2018-03-18T15:25:59.458Z,14.33
2018-03-18T15:28:28.280Z,12.70
2018-03-18T15:30:57.764Z,13.33
2018-03-18T15:33:26.800Z,13.80
2018-03-18T15:35:55.767Z,13.43
2018-03-18T15:38:25.382Z,17.57
2018-03-18T15:40:55.498Z,11.97
2018-03-18T15:43:24.321Z,10.97
2018-03-18T15:45:54.063Z,14.33
2018-03-18T15:48:22.883Z,13.27
2018-03-18T15:50:52.060Z,11.77
2018-03-18T15:53:22.021Z,13.00
2018-03-18T15:55:51.763Z,17.83
2018-03-18T15:58:20.858Z,15.27
2018-03-18T16:00:49.798Z,15.03
2018-03-18T16:03:19.841Z,15.17
2018-03-18T16:05:48.855Z,15.80
2018-03-18T16:08:17.744Z,17.37
2018-03-18T16:10:47.329Z,17.03
2018-03-18T16:13:16.090Z,20.90
2018-03-18T16:15:45.712Z,16.70
2018-03-18T16:18:14.686Z,15.23
2018-03-18T16:20:43.960Z,12.10
2018-03-18T16:23:13.099Z,12.67
2018-03-18T16:25:42.384Z,12.00
2018-03-18T16:28:11.451Z,22.90
2018-03-18T16:30:52.091Z,23.10
2018-03-18T16:33:21.099Z,16.70
2018-03-18T16:35:51.078Z,12.67
2018-03-18T16:38:21.044Z,17.50
2018-03-18T16:40:50.298Z,18.30
2018-03-18T16:43:20.724Z,18.27
2018-03-18T16:45:52.317Z,12.30
2018-03-18T16:48:21.784Z,17.53
2018-03-18T16:50:51.131Z,18.20
2018-03-18T16:53:21.365Z,13.43
2018-03-18T16:55:51.384Z,11.83
2018-03-18T16:58:22.338Z,11.03
2018-03-18T17:00:52.317Z,11.87
2018-03-18T17:03:22.157Z,13.17
2018-03-18T17:05:51.232Z,18.10
2018-03-18T17:08:20.471Z,15.47
2018-03-18T17:10:49.985Z,11.50
2018-03-18T17:13:20.021Z,14.00
2018-03-18T17:15:49.256Z,29.67
2018-03-18T17:18:20.328Z,23.10
2018-03-18T17:20:49.677Z,20.30
2018-03-18T17:23:20.277Z,20.03
2018-03-18T17:25:49.823Z,20.23
2018-03-18T17:28:19.373Z,13.53
2018-03-18T17:30:48.872Z,12.47
2018-03-18T17:33:21.061Z,12.47
2018-03-18T17:35:50.372Z,12.93
2018-03-18T17:38:19.644Z,13.07
2018-03-18T17:40:49.049Z,13.40
2018-03-18T17:43:18.242Z,13.93
2018-03-18T17:45:59.403Z,13.93
2018-03-18T17:48:40.396Z,14.37
2018-03-18T17:51:21.422Z,15.53
2018-03-18T17:54:02.416Z,12.27
2018-03-18T17:56:36.385Z,11.27
2018-03-18T17:59:05.810Z,9.90
2018-03-18T18:01:35.624Z,9.30
2018-03-18T18:04:04.807Z,7.53
2018-03-18T18:06:33.771Z,7.17
2018-03-18T18:09:03.087Z,6.33
2018-03-18T18:11:32.817Z,6.83
2018-03-18T18:14:01.695Z,6.23
2018-03-18T18:16:30.731Z,5.27
2018-03-18T18:19:00.096Z,6.23
2018-03-18T18:21:29.655Z,7.70
2018-03-18T18:23:59.074Z,6.07
2018-03-18T18:26:28.768Z,6.97
2018-03-18T18:28:58.196Z,6.37
2018-03-18T18:41:12.077Z,6.00
2018-03-18T18:43:46.564Z,6.00
2018-03-18T18:46:20.729Z,6.40
2018-03-18T18:48:51.577Z,6.07
2018-03-18T18:51:21.674Z,5.50
2018-03-18T18:53:51.369Z,7.13
2018-03-18T18:56:21.768Z,6.60
2018-03-18T18:58:51.731Z,6.60
2018-03-18T19:01:21.025Z,6.73
2018-03-18T19:03:50.338Z,6.40
2018-03-18T19:06:19.487Z,6.23
2018-03-18T19:08:50.521Z,6.07
2018-03-18T19:11:19.838Z,6.20
2018-03-18T19:13:49.366Z,5.33
2018-03-18T19:16:18.732Z,5.13
2018-03-18T19:19:04.056Z,4.73
2018-03-18T19:25:10.035Z,4.30
2018-03-18T19:27:53.130Z,4.63
2018-03-18T19:30:34.317Z,4.70
2018-03-18T19:33:10.090Z,4.70
2018-03-18T19:35:43.791Z,4.93
2018-03-18T19:38:18.427Z,4.53
2018-03-18T19:40:48.783Z,4.60
2018-03-18T19:43:18.255Z,4.30
2018-03-18T19:45:47.784Z,4.77
2018-03-18T19:48:17.198Z,5.03
2018-03-18T19:50:47.464Z,4.70
2018-03-18T19:53:16.672Z,5.03
2018-03-18T19:55:46.661Z,5.10
2018-03-18T19:58:16.193Z,5.00
2018-03-18T20:00:46.097Z,4.40
2018-03-18T20:03:19.870Z,5.37
2018-03-18T20:05:56.202Z,4.30
2018-03-18T20:08:30.494Z,5.57
2018-03-18T20:11:01.068Z,4.87
2018-03-18T20:13:43.869Z,5.33
2018-03-18T20:16:20.257Z,5.63
2018-03-18T20:18:50.095Z,5.80
2018-03-18T20:21:19.187Z,13.23
2018-03-18T20:23:49.167Z,18.73
2018-03-18T20:26:18.180Z,29.00
2018-03-18T20:28:48.042Z,14.13
2018-03-18T20:31:17.273Z,21.50
2018-03-18T20:33:47.331Z,36.10
2018-03-18T20:36:16.420Z,40.73
2018-03-18T20:38:46.230Z,14.13
2018-03-18T20:57:30.605Z,9.73
2018-03-18T20:59:59.620Z,11.10
2018-03-18T21:02:28.649Z,17.73
2018-03-18T21:04:57.879Z,14.97
2018-03-18T21:07:27.750Z,9.67
2018-03-18T21:09:56.827Z,8.33
2018-03-18T21:12:26.032Z,15.87
2018-03-18T21:14:55.087Z,8.47
2018-03-18T21:17:25.948Z,14.67
2018-03-18T21:19:55.629Z,22.97
2018-03-18T21:22:25.579Z,10.03
2018-03-18T21:24:54.884Z,7.10
2018-03-18T21:27:31.441Z,6.70
2018-03-18T21:30:07.053Z,6.43
2018-03-18T21:32:40.716Z,7.07
2018-03-18T21:35:19.028Z,7.10
2018-03-18T21:38:02.956Z,8.63
2018-03-18T21:40:45.032Z,7.87
2018-03-18T21:43:20.885Z,7.77
2018-03-18T21:46:03.273Z,8.03
2018-03-18T21:48:46.030Z,6.40
2018-03-18T21:51:25.293Z,8.33
2018-03-18T21:53:59.133Z,8.77
2018-03-18T21:56:37.656Z,9.00
2018-03-18T21:59:15.884Z,10.90
2018-03-18T22:01:51.874Z,12.37
2018-03-18T22:04:30.700Z,10.83
2018-03-18T22:07:07.819Z,10.27
2018-03-18T22:09:42.175Z,11.47
2018-03-18T22:12:22.874Z,10.20
2018-03-18T22:15:01.459Z,7.73
2018-03-18T22:17:42.546Z,6.90
2018-03-18T22:20:19.586Z,7.47
2018-03-18T22:22:49.141Z,8.30
2018-03-18T22:25:18.669Z,6.93
2018-03-18T22:27:53.144Z,7.17
2018-03-18T22:30:29.133Z,6.23
2018-03-18T22:32:59.670Z,8.70
2018-03-18T22:35:34.259Z,11.33
2018-03-18T22:38:17.462Z,11.63
2018-03-18T22:40:49.986Z,11.77
2018-03-18T22:43:22.938Z,11.93
2018-03-18T22:45:51.816Z,16.90
2018-03-18T22:48:20.609Z,12.20
2018-03-18T22:50:50.181Z,13.13
2018-03-18T22:53:19.045Z,13.33
2018-03-18T22:55:47.917Z,14.87
2018-03-18T22:58:16.696Z,16.60
2018-03-18T23:00:45.487Z,17.57
2018-03-18T23:03:14.375Z,16.60
2018-03-18T23:05:43.195Z,15.53
2018-03-18T23:08:12.357Z,18.60
2018-03-18T23:10:41.140Z,18.87
2018-03-18T23:13:09.965Z,17.93
2018-03-18T23:15:38.714Z,17.50
2018-03-18T23:18:09.152Z,16.20
2018-03-18T23:20:37.940Z,17.20
2018-03-18T23:23:07.492Z,16.87
2018-03-18T23:25:37.341Z,16.37
2018-03-18T23:28:06.351Z,16.03
2018-03-18T23:30:35.683Z,15.23
2018-03-18T23:33:04.724Z,15.80
2018-03-18T23:35:33.486Z,16.10
2018-03-18T23:38:02.611Z,16.27
2018-03-18T23:40:32.469Z,16.27
2018-03-18T23:43:01.316Z,15.50
2018-03-18T23:45:30.117Z,15.40
2018-03-18T23:47:58.946Z,15.33
2018-03-18T23:50:27.788Z,14.63
2018-03-18T23:52:56.948Z,18.10
2018-03-18T23:55:25.962Z,16.03
2018-03-18T23:57:54.962Z,20.43
